sensor_id;sensor_type;location;lat;lon;timestamp;temperature;humidity
18173;DHT22;9211;48.818;9.312;2022-09-09T00:00:54;15.70;99.90
18173;DHT22;9211;48.818;9.312;2022-09-09T00:03:25;15.80;99.90
18173;DHT22;9211;48.818;9.312;2022-09-09T00:05:58;15.80;99.90
18173;DHT22;9211;48.818;9.312;2022-09-09T00:08:35;15.80;99.90
18173;DHT22;9211;48.818;9.312;2022-09-09T00:11:09;15.80;99.90
18173;DHT22;9211;48.818;9.312;2022-09-09T00:13:43;15.90;99.90
18173;DHT22;9211;48.818;9.312;2022-09-09T00:16:16;15.90;99.90
18173;DHT22;9211;48.818;9.312;2022-09-09T00:18:52;15.90;99.90
18173;DHT22;9211;48.818;9.312;2022-09-09T00:21:26;15.90;99.90
18173;DHT22;9211;48.818;9.312;2022-09-09T00:24:01;15.90;99.90
18173;DHT22;9211;48.818;9.312;2022-09-09T00:26:38;15.80;99.90
18173;DHT22;9211;48.818;9.312;2022-09-09T00:29:17;15.80;99.90
18173;DHT22;9211;48.818;9.312;2022-09-09T00:31:45;15.80;99.90
18173;DHT22;9211;48.818;9.312;2022-09-09T00:34:14;15.80;99.90
18173;DHT22;9211;48.818;9.312;2022-09-09T00:36:43;15.80;99.90
18173;DHT22;9211;48.818;9.312;2022-09-09T00:39:25;15.70;99.90
18173;DHT22;9211;48.818;9.312;2022-09-09T00:42:04;15.70;99.90
18173;DHT22;9211;48.818;9.312;2022-09-09T00:44:37;15.60;99.90
18173;DHT22;9211;48.818;9.312;2022-09-09T00:47:16;15.60;99.90
18173;DHT22;9211;48.818;9.312;2022-09-09T00:49:57;15.60;99.90
18173;DHT22;9211;48.818;9.312;2022-09-09T00:52:34;15.60;99.90
18173;DHT22;9211;48.818;9.312;2022-09-09T00:55:12;15.60;99.90
18173;DHT22;9211;48.818;9.312;2022-09-09T00:57:40;15.60;99.90
18173;DHT22;9211;48.818;9.312;2022-09-09T01:00:22;15.60;99.90
18173;DHT22;9211;48.818;9.312;2022-09-09T01:03:02;15.70;99.90
18173;DHT22;9211;48.818;9.312;2022-09-09T01:05:39;15.70;99.90
18173;DHT22;9211;48.818;9.312;2022-09-09T01:08:19;15.70;99.90
18173;DHT22;9211;48.818;9.312;2022-09-09T01:10:51;15.70;99.90
18173;DHT22;9211;48.818;9.312;2022-09-09T01:13:25;15.70;99.90
18173;DHT22;9211;48.818;9.312;2022-09-09T01:15:57;15.70;99.90
18173;DHT22;9211;48.818;9.312;2022-09-09T01:18:27;15.70;99.90
18173;DHT22;9211;48.818;9.312;2022-09-09T01:21:04;15.70;99.90
18173;DHT22;9211;48.818;9.312;2022-09-09T01:23:52;15.70;99.90
18173;DHT22;9211;48.818;9.312;2022-09-09T01:26:30;15.60;99.90
18173;DHT22;9211;48.818;9.312;2022-09-09T01:29:02;15.70;99.90
18173;DHT22;9211;48.818;9.312;2022-09-09T01:31:39;15.70;99.90
18173;DHT22;9211;48.818;9.312;2022-09-09T01:34:11;15.70;99.90
18173;DHT22;9211;48.818;9.312;2022-09-09T01:36:42;15.70;99.90
18173;DHT22;9211;48.818;9.312;2022-09-09T01:39:10;15.70;99.90
18173;DHT22;9211;48.818;9.312;2022-09-09T01:41:43;15.70;99.90
18173;DHT22;9211;48.818;9.312;2022-09-09T01:44:13;15.70;99.90
18173;DHT22;9211;48.818;9.312;2022-09-09T01:46:43;15.60;99.90
18173;DHT22;9211;48.818;9.312;2022-09-09T01:49:17;15.60;99.90
18173;DHT22;9211;48.818;9.312;2022-09-09T01:51:47;15.60;99.90
18173;DHT22;9211;48.818;9.312;2022-09-09T01:54:17;15.60;99.90
18173;DHT22;9211;48.818;9.312;2022-09-09T01:56:56;15.60;99.90
18173;DHT22;9211;48.818;9.312;2022-09-09T01:59:41;15.60;99.90
18173;DHT22;9211;48.818;9.312;2022-09-09T02:02:17;15.60;99.90
18173;DHT22;9211;48.818;9.312;2022-09-09T02:04:56;15.60;99.90
18173;DHT22;9211;48.818;9.312;2022-09-09T02:07:35;15.50;99.90
18173;DHT22;9211;48.818;9.312;2022-09-09T02:10:10;15.60;99.90
18173;DHT22;9211;48.818;9.312;2022-09-09T02:12:51;15.50;99.90
18173;DHT22;9211;48.818;9.312;2022-09-09T02:15:23;15.40;99.90
18173;DHT22;9211;48.818;9.312;2022-09-09T02:17:54;15.30;99.90
18173;DHT22;9211;48.818;9.312;2022-09-09T02:20:25;15.30;99.90
18173;DHT22;9211;48.818;9.312;2022-09-09T02:22:59;15.30;99.90
18173;DHT22;9211;48.818;9.312;2022-09-09T02:25:29;15.20;99.90
18173;DHT22;9211;48.818;9.312;2022-09-09T02:28:08;15.20;99.90
18173;DHT22;9211;48.818;9.312;2022-09-09T02:30:37;15.20;99.90
18173;DHT22;9211;48.818;9.312;2022-09-09T02:33:06;15.20;99.90
18173;DHT22;9211;48.818;9.312;2022-09-09T02:35:49;15.10;99.90
18173;DHT22;9211;48.818;9.312;2022-09-09T02:38:20;15.10;99.90
18173;DHT22;9211;48.818;9.312;2022-09-09T02:40:58;15.10;99.90
18173;DHT22;9211;48.818;9.312;2022-09-09T02:43:31;15.10;99.90
18173;DHT22;9211;48.818;9.312;2022-09-09T02:46:03;15.00;99.90
18173;DHT22;9211;48.818;9.312;2022-09-09T02:48:38;15.00;99.90
18173;DHT22;9211;48.818;9.312;2022-09-09T02:51:08;15.00;99.90
18173;DHT22;9211;48.818;9.312;2022-09-09T02:53:41;15.00;99.90
18173;DHT22;9211;48.818;9.312;2022-09-09T02:56:14;14.80;99.90
18173;DHT22;9211;48.818;9.312;2022-09-09T02:58:46;14.80;99.90
18173;DHT22;9211;48.818;9.312;2022-09-09T03:01:13;14.80;99.90
18173;DHT22;9211;48.818;9.312;2022-09-09T03:03:40;14.90;99.90
18173;DHT22;9211;48.818;9.312;2022-09-09T03:06:12;14.70;99.90
18173;DHT22;9211;48.818;9.312;2022-09-09T03:08:40;14.70;99.90
18173;DHT22;9211;48.818;9.312;2022-09-09T03:11:08;14.60;99.90
18173;DHT22;9211;48.818;9.312;2022-09-09T03:13:41;14.50;99.90
18173;DHT22;9211;48.818;9.312;2022-09-09T03:16:11;14.50;99.90
18173;DHT22;9211;48.818;9.312;2022-09-09T03:18:43;14.50;99.90
18173;DHT22;9211;48.818;9.312;2022-09-09T03:21:11;14.40;99.90
18173;DHT22;9211;48.818;9.312;2022-09-09T03:23:40;14.50;99.90
18173;DHT22;9211;48.818;9.312;2022-09-09T03:26:07;14.50;99.90
18173;DHT22;9211;48.818;9.312;2022-09-09T03:28:40;14.40;99.90
18173;DHT22;9211;48.818;9.312;2022-09-09T03:31:08;14.50;99.90
18173;DHT22;9211;48.818;9.312;2022-09-09T03:33:40;14.50;99.90
18173;DHT22;9211;48.818;9.312;2022-09-09T03:36:10;14.60;99.90
18173;DHT22;9211;48.818;9.312;2022-09-09T03:38:37;14.50;99.90
18173;DHT22;9211;48.818;9.312;2022-09-09T03:41:05;14.60;99.90
18173;DHT22;9211;48.818;9.312;2022-09-09T03:43:34;14.60;99.90
18173;DHT22;9211;48.818;9.312;2022-09-09T03:46:01;14.60;99.90
18173;DHT22;9211;48.818;9.312;2022-09-09T03:48:29;14.70;99.90
18173;DHT22;9211;48.818;9.312;2022-09-09T03:50:57;14.70;99.90
18173;DHT22;9211;48.818;9.312;2022-09-09T03:53:27;14.60;99.90
18173;DHT22;9211;48.818;9.312;2022-09-09T03:55:56;14.70;99.90
18173;DHT22;9211;48.818;9.312;2022-09-09T03:58:26;14.70;99.90
18173;DHT22;9211;48.818;9.312;2022-09-09T04:01:00;14.70;99.90
18173;DHT22;9211;48.818;9.312;2022-09-09T04:03:28;14.60;99.90
18173;DHT22;9211;48.818;9.312;2022-09-09T04:05:58;14.60;99.90
18173;DHT22;9211;48.818;9.312;2022-09-09T04:08:28;14.70;99.90
18173;DHT22;9211;48.818;9.312;2022-09-09T04:10:57;14.70;99.90
18173;DHT22;9211;48.818;9.312;2022-09-09T04:13:25;14.70;99.90
18173;DHT22;9211;48.818;9.312;2022-09-09T04:15:54;14.60;99.90
18173;DHT22;9211;48.818;9.312;2022-09-09T04:18:22;14.70;99.90
18173;DHT22;9211;48.818;9.312;2022-09-09T04:20:50;14.70;99.90
18173;DHT22;9211;48.818;9.312;2022-09-09T04:23:21;14.70;99.90
18173;DHT22;9211;48.818;9.312;2022-09-09T04:25:51;14.70;99.90
18173;DHT22;9211;48.818;9.312;2022-09-09T04:28:20;14.80;99.90
18173;DHT22;9211;48.818;9.312;2022-09-09T04:30:47;14.80;99.90
18173;DHT22;9211;48.818;9.312;2022-09-09T04:33:15;14.80;99.90
18173;DHT22;9211;48.818;9.312;2022-09-09T04:35:44;14.80;99.90
18173;DHT22;9211;48.818;9.312;2022-09-09T04:38:14;14.80;99.90
18173;DHT22;9211;48.818;9.312;2022-09-09T04:40:43;14.90;99.90
18173;DHT22;9211;48.818;9.312;2022-09-09T04:43:11;15.00;99.90
18173;DHT22;9211;48.818;9.312;2022-09-09T04:45:40;15.10;99.90
18173;DHT22;9211;48.818;9.312;2022-09-09T04:48:07;15.20;99.90
18173;DHT22;9211;48.818;9.312;2022-09-09T04:50:35;15.30;99.90
18173;DHT22;9211;48.818;9.312;2022-09-09T04:53:02;15.30;99.90
18173;DHT22;9211;48.818;9.312;2022-09-09T04:55:31;15.40;99.90
18173;DHT22;9211;48.818;9.312;2022-09-09T04:58:03;15.40;99.90
18173;DHT22;9211;48.818;9.312;2022-09-09T05:00:30;15.50;99.90
18173;DHT22;9211;48.818;9.312;2022-09-09T05:02:57;15.50;99.90
18173;DHT22;9211;48.818;9.312;2022-09-09T05:05:24;15.50;99.90
18173;DHT22;9211;48.818;9.312;2022-09-09T05:07:52;15.50;99.90
18173;DHT22;9211;48.818;9.312;2022-09-09T05:10:18;15.50;99.90
18173;DHT22;9211;48.818;9.312;2022-09-09T05:12:52;15.50;99.90
18173;DHT22;9211;48.818;9.312;2022-09-09T05:15:22;15.50;99.90
18173;DHT22;9211;48.818;9.312;2022-09-09T05:17:49;15.50;99.90
18173;DHT22;9211;48.818;9.312;2022-09-09T05:20:18;15.50;99.90
18173;DHT22;9211;48.818;9.312;2022-09-09T05:22:45;15.50;99.90
18173;DHT22;9211;48.818;9.312;2022-09-09T05:25:12;15.50;99.90
18173;DHT22;9211;48.818;9.312;2022-09-09T05:27:39;15.50;99.90
18173;DHT22;9211;48.818;9.312;2022-09-09T05:30:08;15.50;99.90
18173;DHT22;9211;48.818;9.312;2022-09-09T05:32:36;15.60;99.90
18173;DHT22;9211;48.818;9.312;2022-09-09T05:35:04;15.60;99.90
18173;DHT22;9211;48.818;9.312;2022-09-09T05:37:31;15.80;99.90
18173;DHT22;9211;48.818;9.312;2022-09-09T05:39:58;15.80;99.90
18173;DHT22;9211;48.818;9.312;2022-09-09T05:42:30;15.90;99.90
18173;DHT22;9211;48.818;9.312;2022-09-09T05:44:58;16.00;99.90
18173;DHT22;9211;48.818;9.312;2022-09-09T05:47:26;16.10;99.90
18173;DHT22;9211;48.818;9.312;2022-09-09T05:49:56;16.10;99.90
18173;DHT22;9211;48.818;9.312;2022-09-09T05:52:23;16.10;99.90
18173;DHT22;9211;48.818;9.312;2022-09-09T05:54:51;16.20;99.90
18173;DHT22;9211;48.818;9.312;2022-09-09T05:57:19;16.30;99.90
18173;DHT22;9211;48.818;9.312;2022-09-09T05:59:46;16.20;99.90
18173;DHT22;9211;48.818;9.312;2022-09-09T06:02:13;16.30;99.90
18173;DHT22;9211;48.818;9.312;2022-09-09T06:04:40;16.40;99.90
18173;DHT22;9211;48.818;9.312;2022-09-09T06:07:09;16.50;99.90
18173;DHT22;9211;48.818;9.312;2022-09-09T06:09:36;16.60;99.90
18173;DHT22;9211;48.818;9.312;2022-09-09T06:12:03;16.70;99.90
18173;DHT22;9211;48.818;9.312;2022-09-09T06:14:33;16.80;99.90
18173;DHT22;9211;48.818;9.312;2022-09-09T06:17:01;16.80;99.90
18173;DHT22;9211;48.818;9.312;2022-09-09T06:19:29;16.80;99.90
18173;DHT22;9211;48.818;9.312;2022-09-09T06:21:58;16.90;99.90
18173;DHT22;9211;48.818;9.312;2022-09-09T06:24:30;17.00;99.90
18173;DHT22;9211;48.818;9.312;2022-09-09T06:27:00;17.00;99.90
18173;DHT22;9211;48.818;9.312;2022-09-09T06:29:31;17.00;99.90
18173;DHT22;9211;48.818;9.312;2022-09-09T06:31:58;17.10;99.90
18173;DHT22;9211;48.818;9.312;2022-09-09T06:34:26;17.10;99.90
18173;DHT22;9211;48.818;9.312;2022-09-09T06:36:56;17.10;99.90
18173;DHT22;9211;48.818;9.312;2022-09-09T06:39:24;17.20;99.90
18173;DHT22;9211;48.818;9.312;2022-09-09T06:41:53;17.20;99.90
18173;DHT22;9211;48.818;9.312;2022-09-09T06:44:39;17.30;99.90
18173;DHT22;9211;48.818;9.312;2022-09-09T06:47:11;17.40;99.90
18173;DHT22;9211;48.818;9.312;2022-09-09T06:49:40;17.50;99.90
18173;DHT22;9211;48.818;9.312;2022-09-09T06:52:09;17.60;99.90
18173;DHT22;9211;48.818;9.312;2022-09-09T06:54:38;17.60;99.90
18173;DHT22;9211;48.818;9.312;2022-09-09T06:57:06;17.70;99.90
18173;DHT22;9211;48.818;9.312;2022-09-09T06:59:34;17.70;99.90
18173;DHT22;9211;48.818;9.312;2022-09-09T07:02:02;17.70;99.90
18173;DHT22;9211;48.818;9.312;2022-09-09T07:04:30;17.80;99.90
18173;DHT22;9211;48.818;9.312;2022-09-09T07:06:57;17.90;99.90
18173;DHT22;9211;48.818;9.312;2022-09-09T07:09:25;18.00;99.90
18173;DHT22;9211;48.818;9.312;2022-09-09T07:11:53;18.20;99.90
18173;DHT22;9211;48.818;9.312;2022-09-09T07:14:23;18.30;99.90
18173;DHT22;9211;48.818;9.312;2022-09-09T07:16:54;18.30;99.90
18173;DHT22;9211;48.818;9.312;2022-09-09T07:19:22;18.30;99.90
18173;DHT22;9211;48.818;9.312;2022-09-09T07:21:51;18.40;99.90
18173;DHT22;9211;48.818;9.312;2022-09-09T07:24:21;18.50;99.90
18173;DHT22;9211;48.818;9.312;2022-09-09T07:26:49;18.60;99.90
18173;DHT22;9211;48.818;9.312;2022-09-09T07:29:18;18.70;99.90
18173;DHT22;9211;48.818;9.312;2022-09-09T07:31:46;18.80;99.90
18173;DHT22;9211;48.818;9.312;2022-09-09T07:34:18;18.90;99.90
18173;DHT22;9211;48.818;9.312;2022-09-09T07:36:45;19.10;99.90
18173;DHT22;9211;48.818;9.312;2022-09-09T07:39:14;19.30;99.90
18173;DHT22;9211;48.818;9.312;2022-09-09T07:41:48;19.40;99.90
18173;DHT22;9211;48.818;9.312;2022-09-09T07:44:21;19.40;99.90
18173;DHT22;9211;48.818;9.312;2022-09-09T07:46:55;19.40;99.90
18173;DHT22;9211;48.818;9.312;2022-09-09T07:49:27;19.40;99.90
18173;DHT22;9211;48.818;9.312;2022-09-09T07:51:54;19.40;99.90
18173;DHT22;9211;48.818;9.312;2022-09-09T07:54:21;19.40;99.90
18173;DHT22;9211;48.818;9.312;2022-09-09T07:56:51;19.40;99.90
18173;DHT22;9211;48.818;9.312;2022-09-09T07:59:20;19.40;99.90
18173;DHT22;9211;48.818;9.312;2022-09-09T08:01:51;19.40;99.90
18173;DHT22;9211;48.818;9.312;2022-09-09T08:04:24;19.40;99.90
18173;DHT22;9211;48.818;9.312;2022-09-09T08:06:54;19.30;99.90
18173;DHT22;9211;48.818;9.312;2022-09-09T08:09:24;19.30;99.90
18173;DHT22;9211;48.818;9.312;2022-09-09T08:11:57;19.10;99.90
18173;DHT22;9211;48.818;9.312;2022-09-09T08:14:26;19.10;99.90
18173;DHT22;9211;48.818;9.312;2022-09-09T08:16:55;19.10;99.90
18173;DHT22;9211;48.818;9.312;2022-09-09T08:19:26;19.20;99.90
18173;DHT22;9211;48.818;9.312;2022-09-09T08:21:55;19.40;99.90
18173;DHT22;9211;48.818;9.312;2022-09-09T08:24:22;19.50;99.90
18173;DHT22;9211;48.818;9.312;2022-09-09T08:26:50;19.50;99.90
18173;DHT22;9211;48.818;9.312;2022-09-09T08:29:21;19.50;99.90
18173;DHT22;9211;48.818;9.312;2022-09-09T08:31:49;19.50;99.90
18173;DHT22;9211;48.818;9.312;2022-09-09T08:34:18;19.50;99.90
18173;DHT22;9211;48.818;9.312;2022-09-09T08:36:50;19.70;99.90
18173;DHT22;9211;48.818;9.312;2022-09-09T08:39:21;19.50;99.90
18173;DHT22;9211;48.818;9.312;2022-09-09T08:42:13;19.50;99.90
18173;DHT22;9211;48.818;9.312;2022-09-09T08:45:03;19.50;99.90
18173;DHT22;9211;48.818;9.312;2022-09-09T08:47:41;19.50;99.90
18173;DHT22;9211;48.818;9.312;2022-09-09T08:50:21;19.60;99.90
18173;DHT22;9211;48.818;9.312;2022-09-09T08:52:57;19.70;99.90
18173;DHT22;9211;48.818;9.312;2022-09-09T08:55:35;19.90;99.90
18173;DHT22;9211;48.818;9.312;2022-09-09T08:58:12;20.00;99.90
18173;DHT22;9211;48.818;9.312;2022-09-09T09:00:50;20.10;99.90
18173;DHT22;9211;48.818;9.312;2022-09-09T09:03:28;20.10;99.90
18173;DHT22;9211;48.818;9.312;2022-09-09T09:06:04;20.20;99.90
18173;DHT22;9211;48.818;9.312;2022-09-09T09:08:39;20.40;99.90
18173;DHT22;9211;48.818;9.312;2022-09-09T09:11:09;20.50;99.90
18173;DHT22;9211;48.818;9.312;2022-09-09T09:13:40;20.50;99.90
18173;DHT22;9211;48.818;9.312;2022-09-09T09:16:19;20.50;99.90
18173;DHT22;9211;48.818;9.312;2022-09-09T09:18:48;20.50;99.90
18173;DHT22;9211;48.818;9.312;2022-09-09T09:21:21;20.50;99.90
18173;DHT22;9211;48.818;9.312;2022-09-09T09:23:56;20.70;99.90
18173;DHT22;9211;48.818;9.312;2022-09-09T09:26:29;20.80;99.90
18173;DHT22;9211;48.818;9.312;2022-09-09T09:28:58;21.00;99.90
18173;DHT22;9211;48.818;9.312;2022-09-09T09:31:25;21.10;99.90
18173;DHT22;9211;48.818;9.312;2022-09-09T09:33:54;21.10;99.90
18173;DHT22;9211;48.818;9.312;2022-09-09T09:36:34;21.00;99.90
18173;DHT22;9211;48.818;9.312;2022-09-09T09:39:04;20.90;99.90
18173;DHT22;9211;48.818;9.312;2022-09-09T09:41:34;20.80;99.90
18173;DHT22;9211;48.818;9.312;2022-09-09T09:44:04;20.70;99.90
18173;DHT22;9211;48.818;9.312;2022-09-09T09:46:32;20.60;99.90
18173;DHT22;9211;48.818;9.312;2022-09-09T09:49:09;20.50;99.90
18173;DHT22;9211;48.818;9.312;2022-09-09T09:51:38;20.40;99.90
18173;DHT22;9211;48.818;9.312;2022-09-09T09:54:14;20.30;99.90
18173;DHT22;9211;48.818;9.312;2022-09-09T09:56:50;20.30;99.90
18173;DHT22;9211;48.818;9.312;2022-09-09T09:59:33;20.30;99.90
18173;DHT22;9211;48.818;9.312;2022-09-09T10:02:15;20.40;99.90
18173;DHT22;9211;48.818;9.312;2022-09-09T10:04:44;20.30;99.90
18173;DHT22;9211;48.818;9.312;2022-09-09T10:07:13;20.30;99.90
18173;DHT22;9211;48.818;9.312;2022-09-09T10:09:44;20.30;99.90
18173;DHT22;9211;48.818;9.312;2022-09-09T10:12:19;20.40;99.90
18173;DHT22;9211;48.818;9.312;2022-09-09T10:14:55;20.40;99.90
18173;DHT22;9211;48.818;9.312;2022-09-09T10:17:34;20.40;99.90
18173;DHT22;9211;48.818;9.312;2022-09-09T10:20:18;20.60;99.90
18173;DHT22;9211;48.818;9.312;2022-09-09T10:22:51;20.70;99.90
18173;DHT22;9211;48.818;9.312;2022-09-09T10:25:26;20.70;99.90
18173;DHT22;9211;48.818;9.312;2022-09-09T10:28:21;20.80;99.90
18173;DHT22;9211;48.818;9.312;2022-09-09T10:31:01;20.90;99.90
18173;DHT22;9211;48.818;9.312;2022-09-09T10:33:35;21.00;99.90
18173;DHT22;9211;48.818;9.312;2022-09-09T10:36:12;21.10;99.90
18173;DHT22;9211;48.818;9.312;2022-09-09T10:38:41;21.20;99.90
18173;DHT22;9211;48.818;9.312;2022-09-09T10:41:18;21.30;99.90
18173;DHT22;9211;48.818;9.312;2022-09-09T10:44:12;21.30;99.90
18173;DHT22;9211;48.818;9.312;2022-09-09T10:46:50;21.50;99.90
18173;DHT22;9211;48.818;9.312;2022-09-09T10:49:27;21.60;99.90
18173;DHT22;9211;48.818;9.312;2022-09-09T10:52:02;21.70;99.90
18173;DHT22;9211;48.818;9.312;2022-09-09T10:54:41;21.80;99.90
18173;DHT22;9211;48.818;9.312;2022-09-09T10:57:18;22.00;99.90
18173;DHT22;9211;48.818;9.312;2022-09-09T10:59:52;22.30;99.90
18173;DHT22;9211;48.818;9.312;2022-09-09T11:02:27;22.50;99.90
18173;DHT22;9211;48.818;9.312;2022-09-09T11:04:57;22.60;99.90
18173;DHT22;9211;48.818;9.312;2022-09-09T11:07:29;22.70;99.90
18173;DHT22;9211;48.818;9.312;2022-09-09T11:10:03;22.80;99.90
18173;DHT22;9211;48.818;9.312;2022-09-09T11:12:34;22.90;99.90
18173;DHT22;9211;48.818;9.312;2022-09-09T11:15:06;23.00;99.90
18173;DHT22;9211;48.818;9.312;2022-09-09T11:17:42;23.00;99.90
18173;DHT22;9211;48.818;9.312;2022-09-09T11:20:13;23.00;99.90
18173;DHT22;9211;48.818;9.312;2022-09-09T11:22:45;23.00;99.90
18173;DHT22;9211;48.818;9.312;2022-09-09T11:25:16;23.00;99.90
18173;DHT22;9211;48.818;9.312;2022-09-09T11:27:57;23.10;99.90
18173;DHT22;9211;48.818;9.312;2022-09-09T11:30:34;23.20;99.90
18173;DHT22;9211;48.818;9.312;2022-09-09T11:33:28;23.10;99.90
18173;DHT22;9211;48.818;9.312;2022-09-09T11:36:09;22.80;99.90
18173;DHT22;9211;48.818;9.312;2022-09-09T11:38:44;22.30;99.90
18173;DHT22;9211;48.818;9.312;2022-09-09T11:41:13;21.90;99.90
18173;DHT22;9211;48.818;9.312;2022-09-09T11:43:43;21.60;99.90
18173;DHT22;9211;48.818;9.312;2022-09-09T11:46:12;21.30;99.90
18173;DHT22;9211;48.818;9.312;2022-09-09T11:48:42;21.10;99.90
18173;DHT22;9211;48.818;9.312;2022-09-09T11:51:12;21.00;99.90
18173;DHT22;9211;48.818;9.312;2022-09-09T11:53:50;20.90;99.90
18173;DHT22;9211;48.818;9.312;2022-09-09T11:56:27;20.90;99.90
18173;DHT22;9211;48.818;9.312;2022-09-09T11:58:58;20.90;99.90
18173;DHT22;9211;48.818;9.312;2022-09-09T12:01:44;21.00;99.90
18173;DHT22;9211;48.818;9.312;2022-09-09T12:04:22;21.00;99.90
18173;DHT22;9211;48.818;9.312;2022-09-09T12:06:56;21.20;99.90
18173;DHT22;9211;48.818;9.312;2022-09-09T12:09:28;21.10;99.90
18173;DHT22;9211;48.818;9.312;2022-09-09T12:12:21;21.10;99.90
18173;DHT22;9211;48.818;9.312;2022-09-09T12:15:16;21.00;99.90
18173;DHT22;9211;48.818;9.312;2022-09-09T12:17:48;21.10;99.90
18173;DHT22;9211;48.818;9.312;2022-09-09T12:20:18;21.10;99.90
18173;DHT22;9211;48.818;9.312;2022-09-09T12:23:17;21.20;99.90
18173;DHT22;9211;48.818;9.312;2022-09-09T12:25:57;21.30;99.90
18173;DHT22;9211;48.818;9.312;2022-09-09T12:28:39;21.30;99.90
18173;DHT22;9211;48.818;9.312;2022-09-09T12:31:14;21.30;99.90
18173;DHT22;9211;48.818;9.312;2022-09-09T12:33:44;21.20;99.90
18173;DHT22;9211;48.818;9.312;2022-09-09T12:36:15;21.20;99.90
18173;DHT22;9211;48.818;9.312;2022-09-09T12:38:43;21.10;99.90
18173;DHT22;9211;48.818;9.312;2022-09-09T12:41:19;21.20;99.90
18173;DHT22;9211;48.818;9.312;2022-09-09T12:43:47;21.20;99.90
18173;DHT22;9211;48.818;9.312;2022-09-09T12:46:22;21.30;99.90
18173;DHT22;9211;48.818;9.312;2022-09-09T12:48:53;21.40;99.90
18173;DHT22;9211;48.818;9.312;2022-09-09T12:51:24;21.50;99.90
18173;DHT22;9211;48.818;9.312;2022-09-09T12:53:53;21.50;99.90
18173;DHT22;9211;48.818;9.312;2022-09-09T12:56:22;21.60;99.90
18173;DHT22;9211;48.818;9.312;2022-09-09T12:58:51;21.70;99.90
18173;DHT22;9211;48.818;9.312;2022-09-09T13:01:23;21.80;99.90
18173;DHT22;9211;48.818;9.312;2022-09-09T13:03:51;22.00;99.90
18173;DHT22;9211;48.818;9.312;2022-09-09T13:06:21;22.00;99.90
18173;DHT22;9211;48.818;9.312;2022-09-09T13:08:49;22.20;99.90
18173;DHT22;9211;48.818;9.312;2022-09-09T13:11:19;22.20;99.90
18173;DHT22;9211;48.818;9.312;2022-09-09T13:13:51;22.20;99.90
18173;DHT22;9211;48.818;9.312;2022-09-09T13:16:22;22.30;99.90
18173;DHT22;9211;48.818;9.312;2022-09-09T13:18:50;22.50;99.90
18173;DHT22;9211;48.818;9.312;2022-09-09T13:21:18;22.60;99.90
18173;DHT22;9211;48.818;9.312;2022-09-09T13:23:49;22.60;99.90
18173;DHT22;9211;48.818;9.312;2022-09-09T13:26:22;22.60;99.90
18173;DHT22;9211;48.818;9.312;2022-09-09T13:28:51;22.50;99.90
18173;DHT22;9211;48.818;9.312;2022-09-09T13:31:23;22.50;99.90
18173;DHT22;9211;48.818;9.312;2022-09-09T13:33:52;22.40;99.90
18173;DHT22;9211;48.818;9.312;2022-09-09T13:36:28;22.40;99.90
18173;DHT22;9211;48.818;9.312;2022-09-09T13:38:57;22.40;99.90
18173;DHT22;9211;48.818;9.312;2022-09-09T13:41:28;22.40;99.90
18173;DHT22;9211;48.818;9.312;2022-09-09T13:43:57;22.50;99.90
18173;DHT22;9211;48.818;9.312;2022-09-09T13:46:32;22.60;99.90
18173;DHT22;9211;48.818;9.312;2022-09-09T13:49:01;22.70;99.90
18173;DHT22;9211;48.818;9.312;2022-09-09T13:51:33;22.90;99.90
18173;DHT22;9211;48.818;9.312;2022-09-09T13:54:00;23.20;99.90
18173;DHT22;9211;48.818;9.312;2022-09-09T13:56:27;23.40;99.90
18173;DHT22;9211;48.818;9.312;2022-09-09T13:58:54;23.60;99.90
18173;DHT22;9211;48.818;9.312;2022-09-09T14:01:23;23.40;99.90
18173;DHT22;9211;48.818;9.312;2022-09-09T14:03:51;23.20;99.90
18173;DHT22;9211;48.818;9.312;2022-09-09T14:06:18;23.20;99.90
18173;DHT22;9211;48.818;9.312;2022-09-09T14:08:47;23.20;99.90
18173;DHT22;9211;48.818;9.312;2022-09-09T14:11:16;23.20;99.90
18173;DHT22;9211;48.818;9.312;2022-09-09T14:13:43;23.20;99.90
18173;DHT22;9211;48.818;9.312;2022-09-09T14:16:10;23.30;99.90
18173;DHT22;9211;48.818;9.312;2022-09-09T14:18:37;23.50;99.90
18173;DHT22;9211;48.818;9.312;2022-09-09T14:21:06;23.70;99.90
18173;DHT22;9211;48.818;9.312;2022-09-09T14:23:34;23.80;98.30
18173;DHT22;9211;48.818;9.312;2022-09-09T14:26:01;24.00;98.70
18173;DHT22;9211;48.818;9.312;2022-09-09T14:28:28;24.20;98.30
18173;DHT22;9211;48.818;9.312;2022-09-09T14:30:55;24.30;98.80
18173;DHT22;9211;48.818;9.312;2022-09-09T14:33:25;24.20;98.50
18173;DHT22;9211;48.818;9.312;2022-09-09T14:35:56;24.20;98.00
18173;DHT22;9211;48.818;9.312;2022-09-09T14:38:24;24.00;98.20
18173;DHT22;9211;48.818;9.312;2022-09-09T14:40:51;24.00;98.00
18173;DHT22;9211;48.818;9.312;2022-09-09T14:43:18;23.80;96.60
18173;DHT22;9211;48.818;9.312;2022-09-09T14:45:45;23.60;96.80
18173;DHT22;9211;48.818;9.312;2022-09-09T14:48:13;23.50;97.30
18173;DHT22;9211;48.818;9.312;2022-09-09T14:50:41;23.40;98.00
18173;DHT22;9211;48.818;9.312;2022-09-09T14:53:08;23.40;98.40
18173;DHT22;9211;48.818;9.312;2022-09-09T14:55:37;23.40;98.10
18173;DHT22;9211;48.818;9.312;2022-09-09T14:58:04;23.30;98.10
18173;DHT22;9211;48.818;9.312;2022-09-09T15:00:31;23.30;98.20
18173;DHT22;9211;48.818;9.312;2022-09-09T15:02:58;23.30;98.10
18173;DHT22;9211;48.818;9.312;2022-09-09T15:05:25;23.40;98.10
18173;DHT22;9211;48.818;9.312;2022-09-09T15:07:53;23.40;98.00
18173;DHT22;9211;48.818;9.312;2022-09-09T15:10:20;23.50;97.50
18173;DHT22;9211;48.818;9.312;2022-09-09T15:12:48;23.40;96.70
18173;DHT22;9211;48.818;9.312;2022-09-09T15:15:15;23.40;97.20
18173;DHT22;9211;48.818;9.312;2022-09-09T15:17:42;23.40;97.30
18173;DHT22;9211;48.818;9.312;2022-09-09T15:20:09;23.50;96.90
18173;DHT22;9211;48.818;9.312;2022-09-09T15:22:36;23.50;96.70
18173;DHT22;9211;48.818;9.312;2022-09-09T15:25:04;23.50;95.50
18173;DHT22;9211;48.818;9.312;2022-09-09T15:27:33;23.50;96.10
18173;DHT22;9211;48.818;9.312;2022-09-09T15:30:02;23.40;95.90
18173;DHT22;9211;48.818;9.312;2022-09-09T15:32:29;23.20;95.10
18173;DHT22;9211;48.818;9.312;2022-09-09T15:34:56;23.10;94.80
18173;DHT22;9211;48.818;9.312;2022-09-09T15:37:23;23.00;95.10
18173;DHT22;9211;48.818;9.312;2022-09-09T15:39:50;23.00;95.50
18173;DHT22;9211;48.818;9.312;2022-09-09T15:42:16;22.90;95.70
18173;DHT22;9211;48.818;9.312;2022-09-09T15:44:43;22.90;95.80
18173;DHT22;9211;48.818;9.312;2022-09-09T15:47:12;22.80;96.30
18173;DHT22;9211;48.818;9.312;2022-09-09T15:49:40;22.80;95.90
18173;DHT22;9211;48.818;9.312;2022-09-09T15:52:10;22.70;95.50
18173;DHT22;9211;48.818;9.312;2022-09-09T15:54:37;22.60;95.60
18173;DHT22;9211;48.818;9.312;2022-09-09T15:57:07;22.60;95.80
18173;DHT22;9211;48.818;9.312;2022-09-09T15:59:35;22.50;96.20
18173;DHT22;9211;48.818;9.312;2022-09-09T16:02:03;22.40;96.10
18173;DHT22;9211;48.818;9.312;2022-09-09T16:04:32;22.30;96.30
18173;DHT22;9211;48.818;9.312;2022-09-09T16:07:01;22.20;96.50
18173;DHT22;9211;48.818;9.312;2022-09-09T16:09:29;22.20;96.80
18173;DHT22;9211;48.818;9.312;2022-09-09T16:11:57;22.20;97.30